Time;durP1;ratioP1;P1;durP2;ratioP2;P2;SDS_P1;SDS_P2;PMS_P1;PMS_P2;Temp;Humidity;BMP_temperature;BMP_pressure;BME280_temperature;BME280_humidity;BME280_pressure;Samples;Min_cycle;Max_cycle;Signal;HPM_P1;HPM_P2
2022/08/19 01:02:42;1118983.00;3.73;1944.41;60532.00;0.20;105.40;;;;;24.00;1.50;;;;;;2266261;61;1530;-89
2022/08/19 01:05:12;505699.00;1.69;871.64;66691.00;0.22;116.04;;;;;24.00;1.00;;;;;;2264563;61;1572;-86
2022/08/19 01:07:40;687598.00;2.29;1185.74;140731.00;0.47;243.83;;;;;23.90;1.00;;;;;;2260562;61;1405;-89
2022/08/19 01:12:38;1197769.00;3.99;2086.19;60699.00;0.20;105.69;;;;;23.70;1.20;;;;;;2162249;41;3461;-87
2022/08/19 01:17:44;675382.00;2.25;1164.57;64709.00;0.22;112.62;;;;;23.80;1.80;;;;;;1844405;41;3231;-86
2022/08/19 01:20:17;363237.00;1.21;626.61;32921.00;0.11;57.64;;;;;23.60;3.00;;;;;;2264563;61;1008;-86
2022/08/19 01:22:51;298730.00;1.00;515.74;109020.00;0.36;189.14;;;;;23.60;3.00;;;;;;2264566;61;1633;-87
2022/08/19 01:27:51;728924.00;2.43;1257.43;59823.00;0.20;104.17;;;;;24.00;1.00;;;;;;2312918;40;3496;-87
2022/08/19 01:30:25;316794.00;1.06;546.79;76857.00;0.26;133.61;;;;;24.00;1.60;;;;;;2264519;61;1548;-87
2022/08/19 01:32:56;352054.00;1.17;607.39;69280.00;0.23;120.52;;;;;24.10;1.40;;;;;;2264409;61;1982;-86
2022/08/19 01:35:25;412092.00;1.37;710.59;69142.00;0.23;120.28;;;;;23.70;1.40;;;;;;2271602;56;3801;-88
2022/08/19 01:37:56;599404.00;2.00;1033.19;68487.00;0.23;119.15;;;;;23.40;3.80;;;;;;2260499;61;1087;-86
2022/08/19 01:40:29;358067.00;1.19;617.73;63833.00;0.21;111.10;;;;;23.60;2.20;;;;;;2260564;61;1615;-86
2022/08/19 01:48:01;1208287.00;4.03;2105.21;109825.00;0.37;190.53;;;;;24.10;1.00;;;;;;2262835;61;1314;-87
2022/08/19 01:53:08;1563720.00;5.21;2763.60;78595.00;0.26;136.61;;;;;23.90;2.50;;;;;;2265631;61;1962;-87
2022/08/19 01:58:14;1034920.00;3.45;1794.42;13263.00;0.04;23.60;;;;;23.60;1.70;;;;;;2301337;41;1857;-85
2022/08/19 02:00:43;482379.00;1.61;831.49;0.00;0.00;0.62;;;;;23.70;1.40;;;;;;2265001;61;1456;-85
2022/08/19 02:03:12;798851.00;2.66;1379.12;120072.00;0.40;208.21;;;;;23.70;1.70;;;;;;2264985;61;1384;-87
2022/08/19 02:08:12;1269572.00;4.23;2216.53;0.00;0.00;0.62;;;;;23.80;1.00;;;;;;2262406;61;1288;-87
2022/08/19 02:10:43;664111.00;2.21;1145.06;40861.00;0.14;71.38;;;;;24.00;1.00;;;;;;2260197;61;1039;-87
2022/08/19 02:20:46;1173969.00;3.91;2043.23;15179.00;0.05;26.92;;;;;23.50;1.40;;;;;;2030788;40;3382;-87
2022/08/19 02:23:51;421045.00;1.40;725.99;0.00;0.00;0.62;;;;;23.30;3.10;;;;;;2293130;55;3766;-88
2022/08/19 02:28:54;778730.00;2.60;1344.05;0.00;0.00;0.62;;;;;23.20;2.80;;;;;;2262980;61;1291;-87
2022/08/19 05:42:28;1163545.00;3.88;2024.45;20159.00;0.07;35.55;;;;;23.10;2.70;;;;;;2262795;61;975;-87
2022/08/19 05:57:39;1125691.00;3.75;1956.43;0.00;0.00;0.62;;;;;23.20;2.20;;;;;;2262032;61;1417;-88
2022/08/19 06:00:10;395975.00;1.32;682.89;0.00;0.00;0.62;;;;;23.30;2.60;;;;;;2271804;41;3712;-88
2022/08/19 06:02:38;590904.00;1.97;1018.52;0.00;0.00;0.62;;;;;23.20;2.50;;;;;;2264199;61;1811;-88
2022/08/19 06:38:24;43001.00;0.14;75.08;0.00;0.00;0.62;;;;;24.90;1.00;;;;;;2399576;56;2133;-86
2022/08/19 06:48:56;711304.00;2.37;1226.85;53790.00;0.18;93.74;;;;;24.70;1.00;;;;;;2272975;41;3574;-85
2022/08/19 06:53:56;1220847.00;4.07;2127.96;134838.00;0.45;233.67;;;;;24.90;1.00;;;;;;2266418;61;1876;-87
2022/08/19 07:01:34;995842.00;3.32;1725.11;0.00;0.00;0.62;;;;;25.20;1.00;;;;;;2265738;61;1399;-89
2022/08/19 07:04:02;645446.00;2.15;1112.76;40993.00;0.14;71.61;;;;;25.30;1.00;;;;;;2276882;55;3733;-85
2022/08/19 07:16:42;802757.00;2.68;1385.93;59000.00;0.20;102.75;;;;;25.00;1.00;;;;;;1434479;56;3347;-86
2022/08/19 07:24:19;1628738.00;5.43;2887.79;90926.00;0.30;157.91;;;;;24.80;1.00;;;;;;2366912;40;3637;-86
2022/08/19 07:49:23;967691.00;3.23;1675.33;0.00;0.00;0.62;;;;;24.80;1.00;;;;;;2261684;61;1401;-86
2022/08/19 07:51:53;172028.00;0.57;297.76;0.00;0.00;0.62;;;;;24.70;1.00;;;;;;2259747;61;1091;-88
2022/08/19 07:54:24;298822.00;1.00;515.90;0.00;0.00;0.62;;;;;24.80;1.00;;;;;;2260408;61;1993;-87
2022/08/19 07:56:52;198967.00;0.66;344.15;0.00;0.00;0.62;;;;;24.80;1.00;;;;;;2265756;41;3638;-88
2022/08/19 08:01:52;1202058.00;4.01;2093.94;56362.00;0.19;98.19;;;;;24.80;1.00;;;;;;1556949;56;3656;-86
2022/08/19 08:09:30;502665.00;1.68;866.41;0.00;0.00;0.62;;;;;24.70;1.00;;;;;;2267068;40;3537;-85
2022/08/19 08:12:00;137821.00;0.46;238.81;0.00;0.00;0.62;;;;;24.70;1.00;;;;;;2264574;61;1346;-86
2022/08/19 08:14:32;446090.00;1.49;769.06;32088.00;0.11;56.20;;;;;24.80;1.00;;;;;;2279737;56;3638;-86
2022/08/19 08:17:00;369553.00;1.23;637.47;30756.00;0.10;53.89;;;;;24.70;1.00;;;;;;2261711;61;1362;-86
2022/08/19 08:19:33;238687.00;0.80;412.49;0.00;0.00;0.62;;;;;24.80;1.00;;;;;;2266491;55;3736;-87
2022/08/19 08:22:02;661162.00;2.20;1139.95;38006.00;0.13;66.44;;;;;24.70;1.00;;;;;;2264393;61;1126;-87
2022/08/19 08:27:11;249137.00;0.83;430.47;31886.00;0.11;55.85;;;;;24.90;1.00;;;;;;2261582;56;1660;-86
2022/08/19 08:29:40;207080.00;0.69;358.11;0.00;0.00;0.62;;;;;25.10;1.00;;;;;;2260685;61;1091;-84
2022/08/19 08:34:42;538004.00;1.79;927.28;0.00;0.00;0.62;;;;;24.90;1.00;;;;;;2266016;61;1911;-87
2022/08/19 08:37:09;154354.00;0.51;267.31;0.00;0.00;0.62;;;;;24.40;1.00;;;;;;2261321;61;1416;-85
2022/08/19 08:39:36;244976.00;0.82;423.31;0.00;0.00;0.62;;;;;24.40;1.00;;;;;;2354436;55;3757;-86
2022/08/19 08:42:22;189954.00;0.63;328.63;0.00;0.00;0.62;;;;;24.60;1.00;;;;;;2264426;61;1020;-87
2022/08/19 08:44:59;130612.00;0.44;226.38;0.00;0.00;0.62;;;;;24.70;1.00;;;;;;2264532;61;981;-86
2022/08/19 08:47:34;377098.00;1.26;650.44;0.00;0.00;0.62;;;;;24.60;1.00;;;;;;2260972;61;1609;-87
2022/08/19 08:50:06;92099.00;0.31;159.93;0.00;0.00;0.62;;;;;24.60;1.00;;;;;;2260604;61;1631;-88
2022/08/19 08:52:36;59312.00;0.20;103.29;0.00;0.00;0.62;;;;;24.50;1.00;;;;;;2260525;61;1918;-86
2022/08/19 08:55:09;304947.00;1.02;526.42;0.00;0.00;0.62;;;;;24.50;1.00;;;;;;2260421;61;1692;-86
2022/08/19 08:57:50;341762.00;1.14;589.70;35333.00;0.12;61.81;;;;;24.70;1.00;;;;;;2260537;61;1368;-86
2022/08/19 09:00:21;156935.00;0.52;271.76;0.00;0.00;0.62;;;;;24.90;1.00;;;;;;2260434;61;1610;-87
2022/08/19 09:02:49;187080.00;0.62;323.68;0.00;0.00;0.62;;;;;25.00;1.00;;;;;;2260568;61;1480;-86
2022/08/19 09:05:17;195682.00;0.65;338.49;21402.00;0.07;37.70;;;;;25.00;1.00;;;;;;2260674;61;1063;-85
2022/08/19 09:07:55;72255.00;0.24;125.66;0.00;0.00;0.62;;;;;24.70;1.00;;;;;;2260641;61;1348;-86
2022/08/19 09:10:32;65909.00;0.22;114.69;0.00;0.00;0.62;;;;;24.60;1.00;;;;;;2260679;61;984;-84
2022/08/19 09:13:12;78353.00;0.26;136.19;0.00;0.00;0.62;;;;;24.70;1.00;;;;;;2260629;61;1981;-86
2022/08/19 09:15:44;61066.00;0.20;106.32;0.00;0.00;0.62;;;;;24.70;1.00;;;;;;2260586;61;1381;-85
2022/08/19 09:18:12;38359.00;0.13;67.05;0.00;0.00;0.62;;;;;24.60;1.00;;;;;;2260609;61;1074;-87
2022/08/19 09:20:39;133808.00;0.45;231.90;0.00;0.00;0.62;;;;;24.70;1.00;;;;;;2260307;61;1000;-86
2022/08/19 09:23:06;425313.00;1.42;733.33;0.00;0.00;0.62;;;;;24.70;1.00;;;;;;2260398;61;1625;-86
2022/08/19 09:25:34;235528.00;0.79;407.06;0.00;0.00;0.62;;;;;24.60;1.00;;;;;;2260483;61;1401;-85
2022/08/19 09:28:09;222455.00;0.74;384.57;0.00;0.00;0.62;;;;;24.50;1.00;;;;;;2260324;61;1080;-85
2022/08/19 09:33:17;378598.00;1.26;653.02;22275.00;0.07;39.21;;;;;24.20;1.00;;;;;;2272235;56;2066;-85
2022/08/19 09:35:44;402727.00;1.34;694.49;35578.00;0.12;62.24;;;;;24.30;1.00;;;;;;2263779;61;1435;-86
2022/08/19 09:38:11;285499.00;0.95;492.99;0.00;0.00;0.62;;;;;24.50;1.00;;;;;;2260445;61;1605;-87
2022/08/19 09:40:38;311235.00;1.04;537.23;22346.00;0.07;39.33;;;;;24.60;1.00;;;;;;2260458;61;1067;-86
2022/08/19 09:46:13;471144.00;1.57;812.16;0.00;0.00;0.62;;;;;24.70;1.00;;;;;;2266854;60;1688568;-86
2022/08/19 09:48:42;127411.00;0.42;220.86;0.00;0.00;0.62;;;;;24.90;1.00;;;;;;2287813;60;984;-87
2022/08/19 09:51:15;159643.00;0.53;276.42;0.00;0.00;0.62;;;;;24.90;1.00;;;;;;2287819;60;1614;-87
2022/08/19 09:53:43;125966.00;0.42;218.37;0.00;0.00;0.62;;;;;24.80;1.00;;;;;;2287795;60;1669;-86
2022/08/19 09:56:11;169769.00;0.57;293.87;0.00;0.00;0.62;;;;;24.60;1.40;;;;;;2287767;60;1366;-86
2022/08/19 09:58:39;423294.00;1.41;729.85;48909.00;0.16;85.30;;;;;24.60;1.70;;;;;;2287729;60;943;-87
2022/08/19 10:01:08;151456.00;0.50;262.32;0.00;0.00;0.62;;;;;24.60;1.00;;;;;;2287786;60;1471;-87
2022/08/19 10:03:38;135771.00;0.45;235.28;0.00;0.00;0.62;;;;;24.60;1.00;;;;;;2287785;60;1758;-85
2022/08/19 10:06:06;226367.00;0.75;391.30;0.00;0.00;0.62;;;;;24.80;1.00;;;;;;2287721;60;1990;-85
2022/08/19 10:08:36;156552.00;0.52;271.10;0.00;0.00;0.62;;;;;25.00;1.00;;;;;;2287814;60;1111;-88
2022/08/19 10:11:05;112733.00;0.38;195.55;0.00;0.00;0.62;;;;;25.00;1.00;;;;;;2287731;60;1093;-87
2022/08/19 10:13:35;361750.00;1.21;624.06;19577.00;0.07;34.54;;;;;24.90;1.00;;;;;;2287711;60;996;-87
2022/08/19 10:16:07;184848.00;0.62;319.84;0.00;0.00;0.62;;;;;24.80;1.00;;;;;;2287666;60;1346;-86
2022/08/19 10:18:37;149050.00;0.50;258.17;303.00;0.00;1.15;;;;;24.90;1.00;;;;;;2287751;60;1590;-85
2022/08/19 10:21:09;28829.00;0.10;50.56;0.00;0.00;0.62;;;;;24.80;1.00;;;;;;2287695;60;1184;-84
2022/08/19 10:23:37;92567.00;0.31;160.74;0.00;0.00;0.62;;;;;24.70;1.00;;;;;;2287775;60;1046;-86
2022/08/19 10:26:06;26046.00;0.09;45.74;0.00;0.00;0.62;;;;;24.70;1.00;;;;;;2287731;60;2002;-85
2022/08/19 10:28:36;194879.00;0.65;337.11;0.00;0.00;0.62;;;;;24.70;1.30;;;;;;2287487;60;1097;-87
2022/08/19 10:31:08;179248.00;0.60;310.19;0.00;0.00;0.62;;;;;24.60;1.00;;;;;;2287773;60;1140;-87
2022/08/19 10:33:43;134490.00;0.45;233.07;0.00;0.00;0.62;;;;;24.40;2.00;;;;;;2287602;60;1241;-86
2022/08/19 10:36:18;61005.00;0.20;106.21;0.00;0.00;0.62;;;;;24.40;1.70;;;;;;2318390;40;3740;-86
2022/08/19 10:38:46;380700.00;1.27;656.63;64657.00;0.22;112.53;;;;;24.50;1.50;;;;;;2279357;60;2231;-85
2022/08/19 10:41:16;377096.00;1.26;650.43;69650.00;0.23;121.16;;;;;24.50;1.00;;;;;;2279478;60;1537;-85
2022/08/19 10:43:44;317626.00;1.06;548.22;63216.00;0.21;110.04;;;;;24.60;1.80;;;;;;2279359;60;951;-87
2022/08/19 10:46:18;317425.00;1.06;547.87;80386.00;0.27;139.70;;;;;24.80;1.60;;;;;;2279286;60;2023;-86
2022/08/19 10:48:47;212198.00;0.71;366.92;59948.00;0.20;104.39;;;;;24.90;1.00;;;;;;2279370;60;939;-87
2022/08/19 10:54:02;171316.00;0.57;296.53;62890.00;0.21;109.47;;;;;24.80;1.00;;;;;;2279547;60;729;-86
2022/08/19 10:59:15;16389.00;0.05;29.02;0.00;0.00;0.62;;;;;24.30;1.30;;;;;;2276822;61;665;-87
2022/08/19 11:01:44;199547.00;0.67;345.14;0.00;0.00;0.62;;;;;24.00;3.00;;;;;;2276747;61;883;-89
2022/08/19 11:09:24;785250.00;2.62;1355.41;116440.00;0.39;201.94;;;;;23.60;5.70;;;;;;2282126;60;1388;-89
2022/08/19 11:11:53;298989.00;1.00;516.18;48151.00;0.16;83.99;;;;;23.70;4.90;;;;;;2280804;60;1977;-87
2022/08/19 11:14:22;293450.00;0.98;506.66;67185.00;0.22;116.90;;;;;24.00;3.90;;;;;;2280787;60;970;-87
2022/08/19 11:16:55;193466.00;0.64;334.68;66375.00;0.22;115.50;;;;;24.30;1.40;;;;;;2278177;60;1352;-87
2022/08/19 11:19:26;515518.00;1.72;888.55;73549.00;0.25;127.89;;;;;24.00;2.30;;;;;;2286659;40;3625;-86
2022/08/19 11:21:54;526754.00;1.76;907.90;60923.00;0.20;106.07;;;;;23.70;4.40;;;;;;2272478;61;1805;-87
2022/08/19 11:24:25;420533.00;1.40;725.11;35594.00;0.12;62.26;;;;;24.00;3.30;;;;;;2272555;61;1927;-87
2022/08/19 11:26:57;319082.00;1.06;550.72;95551.00;0.32;165.89;;;;;24.20;3.40;;;;;;2272521;61;1430;-86
2022/08/19 11:29:27;407303.00;1.36;702.36;73601.00;0.25;127.98;;;;;24.30;3.50;;;;;;2272680;61;1122;-87
2022/08/19 11:31:55;327907.00;1.09;565.89;70877.00;0.24;123.28;;;;;24.30;2.20;;;;;;2272592;61;1239;-87
2022/08/19 11:34:27;388588.00;1.30;670.19;71294.00;0.24;124.00;;;;;24.50;1.00;;;;;;2272582;61;1013;-89
2022/08/19 11:36:57;335536.00;1.12;579.00;65838.00;0.22;114.57;;;;;24.50;1.00;;;;;;2272471;61;1609;-87
2022/08/19 11:39:27;396901.00;1.32;684.48;76100.00;0.25;132.30;;;;;24.50;1.50;;;;;;2272648;61;1596;-89
2022/08/19 11:41:54;755292.00;2.52;1303.26;69963.00;0.23;121.70;;;;;24.50;1.90;;;;;;2272359;61;1569;-87
2022/08/19 11:44:21;606218.00;2.02;1044.96;79722.00;0.27;138.56;;;;;24.70;1.60;;;;;;2272683;61;1919;-88
2022/08/19 11:46:48;207076.00;0.69;358.10;70547.00;0.24;122.71;;;;;24.20;3.20;;;;;;2272553;61;1371;-88
2022/08/19 11:49:18;316724.00;1.06;546.67;76976.00;0.26;133.81;;;;;24.20;2.70;;;;;;2272627;61;955;-86
2022/08/19 11:51:45;221594.00;0.74;383.09;62732.00;0.21;109.20;;;;;24.10;3.40;;;;;;2272536;61;1692;-87
2022/08/19 11:54:14;269329.00;0.90;465.19;67446.00;0.22;117.35;;;;;24.10;4.30;;;;;;2272670;61;1523;-88
2022/08/19 11:56:43;170575.00;0.57;295.26;58216.00;0.19;101.39;;;;;24.20;3.40;;;;;;2272451;61;1384;-86
2022/08/19 11:59:11;552182.00;1.84;951.72;126961.00;0.42;220.09;;;;;24.40;1.70;;;;;;2272554;61;1054;-88
2022/08/19 12:01:40;202271.00;0.67;349.83;75368.00;0.25;131.04;;;;;24.30;3.60;;;;;;2272603;61;1000;-86
2022/08/19 12:04:07;198492.00;0.66;343.33;71515.00;0.24;124.38;;;;;24.20;4.00;;;;;;2272558;61;1719;-86
2022/08/19 12:06:38;213928.00;0.71;369.90;63971.00;0.21;111.34;;;;;24.10;4.90;;;;;;2272478;61;2006;-88
2022/08/19 12:09:08;284386.00;0.95;491.08;71478.00;0.24;124.31;;;;;24.00;5.40;;;;;;2272402;61;1067;-88
2022/08/19 12:11:36;272363.00;0.91;470.41;58157.00;0.19;101.29;;;;;23.90;3.10;;;;;;2272556;61;1686;-88
2022/08/19 12:14:05;332880.00;1.11;574.44;76091.00;0.25;132.28;;;;;23.80;6.20;;;;;;2272516;61;1051;-86
2022/08/19 12:16:33;244840.00;0.82;423.08;72954.00;0.24;126.86;;;;;23.90;6.00;;;;;;2272359;61;1410;-87
2022/08/19 12:19:03;244149.00;0.81;421.89;66877.00;0.22;116.36;;;;;24.10;5.40;;;;;;2272417;61;1114;-86
2022/08/19 12:21:32;202900.00;0.68;350.92;62969.00;0.21;109.61;;;;;24.20;4.20;;;;;;2272551;61;1313;-87
2022/08/19 12:24:01;246415.00;0.82;425.79;58149.00;0.19;101.28;;;;;24.30;4.80;;;;;;2272505;61;1048;-88
2022/08/19 12:26:31;259996.00;0.87;449.14;66809.00;0.22;116.25;;;;;24.30;4.60;;;;;;2272394;61;1936;-85
2022/08/19 12:28:59;324186.00;1.08;559.49;60155.00;0.20;104.74;;;;;24.20;5.40;;;;;;2272361;61;1228;-83
2022/08/19 12:31:28;387044.00;1.29;667.53;70612.00;0.24;122.82;;;;;24.10;4.80;;;;;;2271717;61;1277;-84
2022/08/19 12:33:55;839905.00;2.80;1450.81;61916.00;0.21;107.79;;;;;24.10;3.40;;;;;;2271143;61;1713;-84
2022/08/19 12:41:27;1982057.00;6.61;3587.55;188943.00;0.63;326.89;;;;;24.40;3.60;;;;;;2269668;61;1288;-87
2022/08/19 12:43:54;1175603.00;3.92;2046.17;113685.00;0.38;197.19;;;;;24.60;3.10;;;;;;2268312;61;1486;-88
2022/08/19 12:46:22;1089517.00;3.63;1891.69;162808.00;0.54;281.88;;;;;24.60;3.70;;;;;;2268344;61;1987;-89
2022/08/19 12:48:52;484929.00;1.62;835.88;65185.00;0.22;113.44;;;;;24.70;3.80;;;;;;2268320;61;1632;-88
2022/08/19 12:51:19;583769.00;1.95;1006.20;55339.00;0.18;96.42;;;;;24.70;1.00;;;;;;2268396;61;994;-85
2022/08/19 12:53:49;513370.00;1.71;884.85;66665.00;0.22;116.00;;;;;24.90;2.40;;;;;;2268369;61;919;-85
2022/08/19 12:56:19;462028.00;1.54;796.47;61439.00;0.20;106.96;;;;;24.90;3.40;;;;;;2268280;61;1380;-87
2022/08/19 12:58:46;600061.00;2.00;1034.33;119063.00;0.40;206.47;;;;;24.70;3.00;;;;;;2268266;61;1494;-88
2022/08/19 13:01:15;364717.00;1.22;629.16;71172.00;0.24;123.79;;;;;24.90;2.90;;;;;;2268345;61;1547;-86
2022/08/19 13:03:44;660664.00;2.20;1139.09;141707.00;0.47;245.51;;;;;24.90;2.10;;;;;;2268247;61;1609;-87
2022/08/19 13:06:14;441229.00;1.47;760.70;123268.00;0.41;213.72;;;;;25.10;1.30;;;;;;2268140;61;1928;-86
2022/08/19 13:08:41;343360.00;1.14;592.45;62899.00;0.21;109.49;;;;;25.10;1.00;;;;;;2268276;61;1607;-86
2022/08/19 13:11:11;223917.00;0.75;387.08;67406.00;0.22;117.28;;;;;25.20;1.00;;;;;;2268338;61;1042;-88
2022/08/19 13:13:40;281772.00;0.94;486.58;62916.00;0.21;109.52;;;;;25.20;1.00;;;;;;2268228;61;1111;-87
2022/08/19 13:16:08;243389.00;0.81;420.58;66282.00;0.22;115.34;;;;;25.40;1.00;;;;;;2268249;61;1382;-86
2022/08/19 13:18:35;681963.00;2.27;1175.97;140938.00;0.47;244.19;;;;;25.40;1.00;;;;;;2268166;61;1579;-87
2022/08/19 13:21:04;423013.00;1.41;729.37;100197.00;0.33;173.91;;;;;25.40;1.00;;;;;;2268264;61;1185;-89
2022/08/19 13:23:34;404864.00;1.35;698.17;64062.00;0.21;111.50;;;;;25.30;1.00;;;;;;2268336;61;1044;-88
2022/08/19 13:26:05;388643.00;1.30;670.28;57534.00;0.19;100.21;;;;;25.50;1.00;;;;;;2268184;61;2005;-87
2022/08/19 13:36:35;1770878.00;5.90;3163.99;61816.00;0.21;107.62;;;;;25.50;1.00;;;;;;2274238;61;1272;-89
2022/08/19 14:19:52;122236.00;0.41;211.94;0.00;0.00;0.62;;;;;24.60;1.00;;;;;;771381;60;2698;-89
2022/08/19 14:50:16;172348.00;0.57;298.31;0.00;0.00;0.62;;;;;24.60;1.00;;;;;;1637487;60;2823;-87
2022/08/19 14:57:46;960358.00;3.20;1662.38;0.00;0.00;0.62;;;;;24.50;1.00;;;;;;2266961;61;1340;-87
2022/08/19 15:02:45;618049.00;2.06;1065.39;0.00;0.00;0.62;;;;;24.60;1.00;;;;;;2271146;61;1321;-90
2022/08/19 15:15:19;1267675.00;4.23;2213.07;0.00;0.00;0.62;;;;;24.30;1.50;;;;;;2292538;40;3508;-89
2022/08/19 15:17:49;209742.00;0.70;362.69;0.00;0.00;0.62;;;;;24.30;2.40;;;;;;2272281;61;1483;-89
2022/08/19 15:33:07;907342.00;3.02;1569.02;37559.00;0.13;65.66;;;;;25.10;1.00;;;;;;2267173;61;1300;-88
2022/08/19 15:48:24;1694012.00;5.65;3013.79;832.00;0.00;2.06;;;;;25.00;1.00;;;;;;1634395;56;3615;-89
2022/08/19 16:09:17;1464287.00;4.88;2576.10;0.00;0.00;0.62;;;;;25.10;1.00;;;;;;2496597;56;3532;31
2022/08/19 16:21:55;1391794.00;4.64;2441.11;0.00;0.00;0.62;;;;;25.30;1.00;;;;;;2266486;61;1027;-90
2022/08/19 16:24:26;193998.00;0.65;335.59;0.00;0.00;0.62;;;;;25.20;1.00;;;;;;2264917;61;1040;-91
2022/08/19 16:26:53;203141.00;0.68;351.33;0.00;0.00;0.62;;;;;25.20;1.00;;;;;;2265014;61;1919;-91
2022/08/19 16:29:22;287337.00;0.96;496.15;0.00;0.00;0.62;;;;;25.10;1.00;;;;;;2265006;61;1066;-92
2022/08/19 16:31:49;209338.00;0.70;362.00;21934.00;0.07;38.62;;;;;24.90;1.00;;;;;;2265353;61;1097;-89
2022/08/19 16:34:16;196563.00;0.66;340.01;0.00;0.00;0.62;;;;;24.80;1.90;;;;;;2265474;61;1225;-91
2022/08/19 16:36:44;154937.00;0.52;268.32;0.00;0.00;0.62;;;;;24.90;1.00;;;;;;2264906;61;1791;-91
2022/08/19 17:04:15;1339707.00;4.47;2344.96;92631.00;0.31;160.85;;;;;25.60;1.00;;;;;;2266756;61;966;-89
2022/08/19 17:16:42;2473559.00;8.25;4646.37;85413.00;0.28;148.39;;;;;26.00;1.00;;;;;;2492197;41;3398;31
2022/08/19 17:24:11;2177529.00;7.26;3995.45;142499.00;0.47;246.88;;;;;25.80;1.00;;;;;;2270790;61;1295;-89
2022/08/19 17:26:40;1064814.00;3.55;1847.61;172463.00;0.57;298.51;;;;;25.80;1.00;;;;;;2266442;61;1989;-92
2022/08/19 17:29:08;993008.00;3.31;1720.09;191952.00;0.64;332.07;;;;;25.70;1.00;;;;;;2260355;61;914;-93
2022/08/19 17:31:36;611220.00;2.04;1053.60;62179.00;0.21;108.24;;;;;25.70;1.00;;;;;;2252290;61;851;-92
2022/08/19 17:56:49;1505619.00;5.02;2653.70;60688.00;0.20;105.67;;;;;25.20;1.00;;;;;;2266721;61;1353;-90
2022/08/19 18:06:41;759925.00;2.53;1311.32;0.00;0.00;0.62;;;;;25.20;1.00;;;;;;2270479;61;1952;-88
2022/08/19 18:16:38;1375588.00;4.59;2411.12;0.00;0.00;0.62;;;;;25.30;1.00;;;;;;2270760;61;1332;-90
2022/08/19 19:09:25;1970333.00;6.57;3563.58;0.00;0.00;0.62;;;;;24.00;1.80;;;;;;2306225;40;3623;31
2022/08/19 19:51:50;1616946.00;5.39;2865.17;48240.00;0.16;84.14;;;;;23.10;4.40;;;;;;2266770;61;1326;-85
2022/08/19 19:59:20;1401406.00;4.67;2458.93;0.00;0.00;0.62;;;;;23.10;5.10;;;;;;2266918;61;1063;-89
2022/08/19 20:36:50;1284616.00;4.28;2243.98;9429.00;0.03;16.96;;;;;23.50;3.30;;;;;;2269353;61;1380;-89
2022/08/19 21:24:25;1368421.00;4.56;2397.88;31904.00;0.11;55.88;;;;;22.90;2.80;;;;;;2300685;40;3692;-90
2022/08/19 22:22:00;1053825.00;3.51;1828.04;73969.00;0.25;128.62;;;;;23.00;2.30;;;;;;2266933;61;1267;-89
2022/08/19 22:24:28;1178073.00;3.93;2050.63;87290.00;0.29;151.63;;;;;22.80;2.10;;;;;;2275141;41;3599;-91
2022/08/19 22:34:24;1167023.00;3.89;2030.71;69638.00;0.23;121.13;;;;;22.50;3.60;;;;;;2297272;56;3664;-90
2022/08/19 22:39:20;902592.00;3.01;1560.67;64865.00;0.22;112.89;;;;;22.80;2.60;;;;;;2269529;61;1420;-90
2022/08/19 22:56:43;1075097.00;3.58;1865.95;44666.00;0.15;77.96;;;;;23.20;1.00;;;;;;2270819;61;1323;-89
2022/08/19 22:59:13;744234.00;2.48;1284.03;206024.00;0.69;356.29;;;;;23.30;1.00;;;;;;2269275;61;1084;-87
2022/08/19 23:06:41;1624156.00;5.41;2878.99;18136.00;0.06;32.04;;;;;22.90;1.50;;;;;;2270103;61;1907;-91
2022/08/19 23:19:08;1819804.00;6.07;3260.65;27088.00;0.09;47.54;;;;;23.60;1.00;;;;;;2274327;40;3570;-86
2022/08/19 23:24:03;1633758.00;5.45;2897.43;22098.00;0.07;38.90;;;;;22.80;1.00;;;;;;2266625;61;1424;-85
2022/08/19 23:26:29;793619.00;2.65;1370.00;42700.00;0.14;74.56;;;;;22.70;1.40;;;;;;2264620;61;2016;-86
2022/08/19 23:31:26;1258458.00;4.19;2196.28;66222.00;0.22;115.23;;;;;22.40;3.10;;;;;;2266630;61;1500;-90
2022/08/19 23:33:53;359702.00;1.20;620.54;62584.00;0.21;108.94;;;;;22.40;3.10;;;;;;2264638;61;1074;-89
2022/08/19 23:36:22;181272.00;0.60;313.68;57615.00;0.19;100.35;;;;;22.70;2.30;;;;;;2264506;61;1300;-88
2022/08/19 23:38:50;287380.00;0.96;496.23;46160.00;0.15;80.54;;;;;22.80;1.80;;;;;;2264523;61;1044;-86
2022/08/19 23:41:20;572386.00;1.91;986.56;96668.00;0.32;167.82;;;;;22.80;1.60;;;;;;2264542;61;1755;-87
2022/08/19 23:43:48;337157.00;1.12;581.79;50089.00;0.17;87.34;;;;;22.40;4.10;;;;;;2264522;61;1144;-88
2022/08/19 23:46:17;263285.00;0.88;454.80;67089.00;0.22;116.73;;;;;22.30;5.00;;;;;;2264502;61;1916;-88
2022/08/19 23:48:45;384332.00;1.28;662.87;63737.00;0.21;110.94;;;;;22.30;4.70;;;;;;2264579;61;1588;-88
2022/08/19 23:51:15;164328.00;0.55;284.50;61370.00;0.20;106.85;;;;;22.40;3.20;;;;;;2264622;61;1036;-88
2022/08/19 23:53:44;281031.00;0.94;485.31;72089.00;0.24;125.37;;;;;22.70;2.40;;;;;;2264571;61;1105;-89
2022/08/19 23:56:12;258955.00;0.86;447.35;65734.00;0.22;114.39;;;;;22.70;2.40;;;;;;2264454;61;1457;-90
